Time;durP1;ratioP1;P1;durP2;ratioP2;P2;SDS_P1;SDS_P2;PMS_P1;PMS_P2;Temp;Humidity;BMP_temperature;BMP_pressure;BME280_temperature;BME280_humidity;BME280_pressure;Samples;Min_cycle;Max_cycle;Signal;HPM_P1;HPM_P2
2021/10/26 00:00:38;;;;;;;35.73;14.70;;;;;;;2.30;56.80;100999.63;1604355;88;21783;-68
2021/10/26 00:03:05;;;;;;;33.10;14.30;;;;;;;2.28;56.87;100994.42;1617197;88;21650;-64
2021/10/26 00:05:32;;;;;;;32.38;13.70;;;;;;;2.29;56.92;100986.55;1618218;88;21015;-65
2021/10/26 00:07:58;;;;;;;33.28;15.05;;;;;;;2.32;56.98;100986.61;1577290;88;21460;-63
2021/10/26 00:10:24;;;;;;;37.75;14.80;;;;;;;2.31;56.87;100984.95;1614877;87;21547;-67
2021/10/26 00:12:53;;;;;;;35.08;15.50;;;;;;;2.29;56.93;100982.47;1607176;88;21189;-64
2021/10/26 00:15:21;;;;;;;34.00;16.40;;;;;;;2.28;56.94;100976.73;1637479;85;21121;-65
2021/10/26 00:17:47;;;;;;;32.30;13.55;;;;;;;2.26;57.02;100973.41;1651028;86;21055;-62
2021/10/26 00:20:13;;;;;;;34.50;15.08;;;;;;;2.26;57.07;100976.65;1644469;86;21286;-63
2021/10/26 00:22:42;;;;;;;31.05;13.98;;;;;;;2.26;57.17;100975.28;1649949;86;21020;-64
2021/10/26 00:25:09;;;;;;;29.63;13.65;;;;;;;2.28;57.18;100962.30;1649954;86;21420;-64
2021/10/26 00:27:38;;;;;;;28.32;13.00;;;;;;;2.29;57.25;100962.58;1655643;86;21021;-68
2021/10/26 00:30:07;;;;;;;30.88;14.30;;;;;;;2.30;57.25;100961.54;1625280;86;21079;-63
2021/10/26 00:32:33;;;;;;;26.52;13.88;;;;;;;2.31;57.23;100944.98;1636973;86;21062;-66
2021/10/26 00:35:00;;;;;;;29.18;15.38;;;;;;;2.27;57.25;100951.13;1647207;86;21016;-64
2021/10/26 00:37:26;;;;;;;33.15;14.50;;;;;;;2.23;57.33;100952.63;1643383;86;21543;-64
2021/10/26 00:39:53;;;;;;;32.10;15.70;;;;;;;2.21;57.42;100953.38;1643441;86;21065;-62
2021/10/26 00:42:19;;;;;;;33.92;14.80;;;;;;;2.23;57.47;100952.63;1615275;86;21041;-64
2021/10/26 00:44:47;;;;;;;28.42;13.62;;;;;;;2.23;57.48;100951.27;1615744;86;21028;-63
2021/10/26 00:47:13;;;;;;;33.80;15.30;;;;;;;2.22;57.53;100954.51;1684630;84;21082;-64
2021/10/26 00:49:40;;;;;;;31.90;14.43;;;;;;;2.24;57.57;100947.48;1688427;84;21817;-63
2021/10/26 00:52:06;;;;;;;31.90;14.43;;;;;;;2.23;57.58;100943.95;1681905;84;21026;-67
2021/10/26 00:54:33;;;;;;;39.48;14.53;;;;;;;2.19;57.62;100935.41;1651645;86;21528;-70
2021/10/26 00:57:02;;;;;;;33.63;16.20;;;;;;;2.17;57.70;100934.80;1643013;86;21042;-63
2021/10/26 00:59:28;;;;;;;29.65;13.93;;;;;;;2.17;57.73;100929.36;1632333;86;21043;-69
2021/10/26 01:01:56;;;;;;;39.60;15.60;;;;;;;2.17;57.78;100932.08;1643524;85;22186;-65
2021/10/26 01:04:24;;;;;;;31.57;15.03;;;;;;;2.18;57.83;100934.28;1641404;86;21567;-67
2021/10/26 01:06:55;;;;;;;34.18;13.58;;;;;;;2.19;57.82;100939.48;1615387;86;21088;-63
2021/10/26 01:09:21;;;;;;;33.23;15.60;;;;;;;2.21;57.69;100935.70;1645341;86;21582;-64
2021/10/26 01:11:48;;;;;;;35.48;15.78;;;;;;;2.18;57.73;100933.73;1649789;86;21121;-62
2021/10/26 01:14:17;;;;;;;31.68;14.80;;;;;;;2.16;57.81;100926.36;1651690;85;21115;-64
2021/10/26 01:16:44;;;;;;;31.55;14.73;;;;;;;2.14;57.84;100932.55;1642578;86;21068;-63
2021/10/26 01:19:12;;;;;;;34.15;14.28;;;;;;;2.12;57.95;100933.81;1646684;86;21083;-66
2021/10/26 01:21:39;;;;;;;27.30;13.48;;;;;;;2.12;57.97;100929.73;1647096;86;21031;-63
2021/10/26 01:24:06;;;;;;;28.77;14.00;;;;;;;2.11;57.96;100933.01;1649803;86;21055;-62
2021/10/26 01:26:34;;;;;;;33.98;13.28;;;;;;;2.08;57.99;100933.47;1642605;86;21197;-65
2021/10/26 01:29:00;;;;;;;38.80;15.48;;;;;;;2.05;58.09;100930.66;1643374;86;21057;-63
2021/10/26 01:31:27;;;;;;;34.55;14.83;;;;;;;2.03;58.22;100928.69;1613289;86;21489;-63
2021/10/26 01:33:59;;;;;;;32.15;14.33;;;;;;;2.03;58.30;100920.53;1635611;86;21044;-62
2021/10/26 01:36:29;;;;;;;30.72;14.28;;;;;;;2.03;58.29;100923.80;1641895;86;21489;-62
2021/10/26 01:38:55;;;;;;;34.25;14.80;;;;;;;2.01;58.32;100921.84;1643340;86;21817;-67
2021/10/26 01:41:22;;;;;;;30.85;15.03;;;;;;;1.99;58.34;100924.78;1663390;84;21083;-64
2021/10/26 01:43:53;;;;;;;32.03;14.90;;;;;;;1.96;58.46;100923.05;1685132;84;21027;-64
2021/10/26 01:46:17;;;;;;;31.95;14.93;;;;;;;1.93;58.55;100923.80;1680340;84;21515;-65
2021/10/26 01:48:44;;;;;;;33.18;15.23;;;;;;;1.91;58.63;100919.66;1643274;86;21103;-64
2021/10/26 01:51:11;;;;;;;32.13;13.93;;;;;;;1.88;58.67;100922.28;1650340;86;21147;-63
2021/10/26 01:53:37;;;;;;;31.00;15.15;;;;;;;1.87;58.75;100917.08;1655142;86;21085;-62
2021/10/26 01:56:06;;;;;;;34.23;15.08;;;;;;;1.86;58.88;100918.95;1647366;86;21086;-65
2021/10/26 01:58:36;;;;;;;37.50;14.30;;;;;;;1.86;58.90;100909.44;1647112;86;21512;-66
2021/10/26 02:01:14;;;;;;;34.63;14.28;;;;;;;1.86;58.90;100913.52;1651449;86;21500;-63
2021/10/26 02:03:42;;;;;;;38.75;14.98;;;;;;;1.86;58.95;100914.07;1645795;86;21302;-64
2021/10/26 02:06:09;;;;;;;34.13;14.43;;;;;;;1.86;59.00;100918.95;1642447;86;21322;-66
2021/10/26 02:08:37;;;;;;;29.80;14.85;;;;;;;1.84;58.97;100914.82;1665501;84;21074;-64
2021/10/26 02:11:05;;;;;;;31.75;13.98;;;;;;;1.81;59.01;100914.21;1665538;84;21528;-64
2021/10/26 02:13:32;;;;;;;30.00;14.00;;;;;;;1.78;59.09;100907.03;1686026;83;21047;-69
2021/10/26 02:16:00;;;;;;;31.48;14.47;;;;;;;1.75;59.21;100917.84;1639241;83;21544;-64
2021/10/26 02:18:28;;;;;;;31.93;16.62;;;;;;;1.75;59.33;100913.77;1658278;85;21016;-64
2021/10/26 02:20:57;;;;;;;29.98;14.87;;;;;;;1.76;59.28;100917.30;1659408;85;21567;-63
2021/10/26 02:23:23;;;;;;;59.25;17.07;;;;;;;1.75;59.29;100914.29;1630406;85;21027;-63
2021/10/26 02:25:50;;;;;;;29.87;14.53;;;;;;;1.70;59.35;100909.02;1630035;85;21019;-64
2021/10/26 02:28:17;;;;;;;28.60;14.35;;;;;;;1.67;59.47;100912.16;1659132;85;21173;-64
2021/10/26 02:30:44;;;;;;;28.98;14.03;;;;;;;1.65;59.56;100903.43;1654395;85;21004;-64
2021/10/26 02:33:11;;;;;;;39.40;15.10;;;;;;;1.64;59.65;100903.66;1657252;85;21008;-64
2021/10/26 02:35:38;;;;;;;31.73;14.13;;;;;;;1.63;59.70;100904.70;1655955;85;21055;-65
2021/10/26 02:38:07;;;;;;;30.90;14.35;;;;;;;1.60;59.76;100894.28;1654699;85;21025;-64
2021/10/26 02:40:33;;;;;;;28.73;13.85;;;;;;;1.56;59.83;100892.55;1655121;85;21495;-62
2021/10/26 02:43:00;;;;;;;30.12;15.13;;;;;;;1.51;59.95;100893.23;1659351;85;20984;-65
2021/10/26 02:45:29;;;;;;;34.23;14.73;;;;;;;1.48;60.17;100890.97;1657828;85;21083;-64
2021/10/26 02:47:57;;;;;;;31.65;15.20;;;;;;;1.49;60.23;100888.54;1632668;85;21023;-64
2021/10/26 02:50:25;;;;;;;31.02;14.10;;;;;;;1.44;60.37;100882.43;1650907;85;21846;-63
2021/10/26 02:52:52;;;;;;;30.62;14.60;;;;;;;1.44;60.45;100884.31;1657153;85;21185;-65
2021/10/26 02:55:19;;;;;;;32.50;14.07;;;;;;;1.44;60.49;100880.23;1655507;85;21031;-64
2021/10/26 02:57:47;;;;;;;28.10;13.72;;;;;;;1.44;60.45;100883.79;1626380;85;21050;-65
2021/10/26 03:00:13;;;;;;;31.07;14.43;;;;;;;1.44;60.50;100887.86;1632089;85;21046;-64
2021/10/26 03:02:43;;;;;;;30.57;15.58;;;;;;;1.39;60.51;100876.00;1656750;85;21071;-63
2021/10/26 03:05:09;;;;;;;27.90;13.90;;;;;;;1.35;60.62;100885.13;1629962;85;21917;-65
2021/10/26 03:07:43;;;;;;;35.60;15.28;;;;;;;1.31;60.83;100880.66;1629931;85;21472;-65
2021/10/26 03:10:10;;;;;;;34.25;15.93;;;;;;;1.32;60.89;100882.34;1656542;85;21578;-63
2021/10/26 03:12:36;;;;;;;28.85;14.63;;;;;;;1.27;60.90;100869.12;1655655;85;21047;-64
2021/10/26 03:15:06;;;;;;;28.65;14.50;;;;;;;1.19;61.03;100871.09;1655681;84;21039;-64
2021/10/26 03:17:34;;;;;;;39.90;16.02;;;;;;;1.14;61.24;100875.01;1669609;84;21166;-64
2021/10/26 03:20:09;;;;;;;33.85;15.20;;;;;;;1.09;61.26;100877.02;1637584;85;21519;-64
2021/10/26 03:22:36;;;;;;;38.50;17.27;;;;;;;1.02;61.36;100870.00;1637057;85;21157;-63
2021/10/26 03:25:07;;;;;;;41.10;15.80;;;;;;;0.97;61.48;100866.05;1638893;85;21016;-63
2021/10/26 03:27:35;;;;;;;36.03;15.95;;;;;;;0.95;61.63;100870.06;1669071;85;21501;-64
2021/10/26 03:30:07;;;;;;;37.20;15.10;;;;;;;0.88;61.76;100863.33;1667871;85;21564;-67
2021/10/26 03:32:33;;;;;;;31.60;16.02;;;;;;;0.82;61.86;100860.16;1671296;84;21522;-63
2021/10/26 03:35:19;;;;;;;33.85;15.98;;;;;;;0.77;62.06;100864.06;1670089;85;21077;-63
2021/10/26 03:37:45;;;;;;;34.50;16.00;;;;;;;0.69;62.27;100857.01;1665090;85;21035;-63
2021/10/26 03:40:12;;;;;;;44.75;17.07;;;;;;;0.68;62.54;100851.28;1670161;85;21078;-63
2021/10/26 03:42:39;;;;;;;32.80;16.07;;;;;;;0.67;62.62;100855.88;1663288;85;21156;-64
2021/10/26 03:45:08;;;;;;;37.38;16.90;;;;;;;0.65;62.65;100852.54;1661797;85;21110;-65
2021/10/26 03:47:40;;;;;;;36.30;17.10;;;;;;;0.64;62.81;100855.48;1670521;85;21042;-63
2021/10/26 03:50:08;;;;;;;;;;;;;;;0.65;62.85;100857.16;1639794;85;21078;-65
2021/10/26 03:52:35;;;;;;;36.70;16.27;;;;;;;0.65;62.85;100859.33;1669826;85;20148;-65
2021/10/26 03:55:03;;;;;;;37.00;16.02;;;;;;;0.59;62.90;100856.15;1671603;85;21168;-67
2021/10/26 03:57:30;;;;;;;34.63;17.02;;;;;;;0.56;63.07;100854.69;1666612;85;21176;-62
2021/10/26 03:59:57;;;;;;;38.38;18.02;;;;;;;0.56;63.15;100853.87;1670070;85;21071;-65
2021/10/26 04:02:26;;;;;;;40.92;17.73;;;;;;;0.52;63.23;100854.84;1665538;85;21082;-62
2021/10/26 04:04:56;;;;;;;34.78;18.45;;;;;;;0.48;63.32;100844.11;1667604;85;21101;-65
2021/10/26 04:07:21;;;;;;;32.40;16.70;;;;;;;0.47;63.39;100849.24;1667907;85;21131;-66
2021/10/26 04:10:02;;;;;;;52.10;18.77;;;;;;;0.38;63.46;100845.96;1665063;85;21045;-62
2021/10/26 04:12:27;;;;;;;39.65;16.85;;;;;;;0.33;63.77;100850.70;1664416;85;21095;-65
2021/10/26 04:14:56;;;;;;;32.83;16.02;;;;;;;0.30;63.88;100851.65;1668019;84;21026;-67
2021/10/26 04:17:25;;;;;;;50.48;19.37;;;;;;;0.27;63.98;100850.73;1682547;84;21490;-63
2021/10/26 04:19:58;;;;;;;37.20;17.48;;;;;;;0.26;64.11;100854.51;1686126;84;21149;-65
2021/10/26 04:22:26;;;;;;;41.95;17.55;;;;;;;0.24;64.11;100856.89;1684766;83;21019;-62
2021/10/26 04:24:52;;;;;;;39.23;17.37;;;;;;;0.23;64.22;100852.53;1687141;84;21050;-62
2021/10/26 04:27:20;;;;;;;38.88;18.48;;;;;;;0.19;64.32;100850.45;1683181;83;21019;-62
2021/10/26 04:29:47;;;;;;;40.70;17.20;;;;;;;0.11;64.38;100855.62;1661159;84;21106;-65
2021/10/26 04:32:16;;;;;;;40.92;19.10;;;;;;;0.08;64.49;100856.90;1648163;86;21193;-65
2021/10/26 04:34:46;;;;;;;38.67;17.87;;;;;;;0.05;64.64;100849.17;1647370;86;21131;-63
2021/10/26 04:37:12;;;;;;;38.23;18.92;;;;;;;0.07;64.76;100857.13;1640248;86;22200;-63
2021/10/26 04:39:42;;;;;;;36.05;16.65;;;;;;;0.06;64.80;100856.80;1643293;85;21551;-64
2021/10/26 04:42:09;;;;;;;39.88;17.48;;;;;;;0.03;64.91;100856.72;1639223;86;21012;-62
2021/10/26 04:44:38;;;;;;;37.48;17.02;;;;;;;0.01;65.02;100855.25;1643442;86;21147;-61
2021/10/26 04:47:04;;;;;;;37.83;18.07;;;;;;;-0.04;65.15;100851.33;1643637;86;21118;-63
2021/10/26 04:49:31;;;;;;;35.00;16.50;;;;;;;-0.05;65.27;100853.72;1612158;86;21067;-66
2021/10/26 04:51:58;;;;;;;33.95;15.72;;;;;;;-0.05;65.38;100853.72;1640460;86;21036;-62
2021/10/26 04:54:25;;;;;;;33.18;16.20;;;;;;;-0.04;65.50;100856.75;1685463;84;21136;-63
2021/10/26 04:56:53;;;;;;;31.70;16.48;;;;;;;-0.02;65.51;100855.98;1649832;86;21864;-62
2021/10/26 04:59:32;;;;;;;33.13;15.90;;;;;;;0.01;65.52;100858.80;1645967;86;21107;-63
2021/10/26 05:02:00;;;;;;;39.23;18.10;;;;;;;0.02;65.52;100858.30;1650829;86;21036;-62
2021/10/26 05:04:27;;;;;;;31.17;15.32;;;;;;;0.05;65.53;100865.44;1648464;86;21087;-63
2021/10/26 05:06:55;;;;;;;35.58;15.83;;;;;;;0.02;65.61;100864.52;1648159;86;21060;-64
2021/10/26 05:09:21;;;;;;;33.83;16.60;;;;;;;-0.02;65.74;100866.83;1647279;86;21156;-64
2021/10/26 05:11:51;;;;;;;37.98;16.35;;;;;;;-0.02;65.84;100863.31;1627274;86;21027;-64
2021/10/26 05:14:17;;;;;;;38.28;17.15;;;;;;;0.05;65.92;100865.98;1653049;86;21063;-65
2021/10/26 05:17:05;;;;;;;35.30;16.55;;;;;;;0.13;65.90;100870.31;1658983;85;21514;-61
2021/10/26 05:19:51;;;;;;;38.65;17.00;;;;;;;0.19;65.90;100863.50;1615907;86;21543;-63
2021/10/26 05:22:36;;;;;;;34.48;16.87;;;;;;;0.26;65.84;100864.81;1640169;86;21190;-63
2021/10/26 05:25:24;;;;;;;48.78;17.25;;;;;;;0.31;65.82;100864.15;1640290;85;21076;-64
2021/10/26 05:27:54;;;;;;;34.85;16.97;;;;;;;0.36;65.82;100859.74;1649775;85;22122;-64
2021/10/26 05:30:21;;;;;;;34.98;15.95;;;;;;;0.45;65.77;100867.09;1656742;85;21007;-66
2021/10/26 05:32:47;;;;;;;41.18;17.15;;;;;;;0.50;65.69;100863.72;1656348;85;21098;-67
2021/10/26 05:35:13;;;;;;;38.00;15.80;;;;;;;0.55;65.58;100871.19;1629764;85;21223;-65
2021/10/26 05:37:42;;;;;;;39.63;14.65;;;;;;;0.63;65.70;100877.73;1657728;85;21645;-63
2021/10/26 05:40:11;;;;;;;30.68;14.18;;;;;;;0.75;65.49;100881.08;1692789;84;22385;-63
2021/10/26 05:42:38;;;;;;;31.77;16.10;;;;;;;0.85;65.31;100874.64;1679361;84;21498;-65
2021/10/26 05:45:06;;;;;;;31.05;16.45;;;;;;;0.95;65.22;100877.69;1664766;84;21031;-63
2021/10/26 05:47:34;;;;;;;27.45;14.10;;;;;;;1.06;65.05;100873.39;1687407;84;21102;-64
2021/10/26 05:50:01;;;;;;;37.60;14.93;;;;;;;1.23;64.79;100882.31;1691327;83;21499;-66
2021/10/26 05:52:29;;;;;;;31.02;15.20;;;;;;;1.35;64.53;100873.45;1665094;84;21156;-65
2021/10/26 05:54:56;;;;;;;31.10;15.03;;;;;;;1.49;64.23;100880.39;1662561;84;21031;-63
2021/10/26 05:57:22;;;;;;;29.57;14.58;;;;;;;1.61;63.98;100876.39;1691587;84;21022;-63
2021/10/26 05:59:50;;;;;;;29.72;14.35;;;;;;;1.71;63.47;100884.01;1691899;84;21117;-63
2021/10/26 06:02:16;;;;;;;25.30;13.80;;;;;;;1.81;63.28;100878.03;1654740;84;21079;-65
2021/10/26 06:04:43;;;;;;;24.95;13.20;;;;;;;1.93;62.93;100883.53;1661997;84;21049;-63
2021/10/26 06:07:11;;;;;;;27.32;13.75;;;;;;;2.05;62.49;100874.08;1685848;84;21053;-63
2021/10/26 06:09:39;;;;;;;22.90;12.10;;;;;;;2.14;62.19;100883.59;1689132;84;21545;-65
2021/10/26 06:12:09;;;;;;;30.27;14.78;;;;;;;2.22;62.00;100887.06;1663047;84;21335;-64
2021/10/26 06:14:36;;;;;;;30.23;13.15;;;;;;;2.32;61.77;100888.66;1678461;84;21027;-64
2021/10/26 06:17:02;;;;;;;23.52;12.95;;;;;;;2.42;61.46;100888.94;1682016;84;21595;-65
2021/10/26 06:19:34;;;;;;;26.33;13.48;;;;;;;2.49;61.28;100890.75;1639704;86;21068;-64
2021/10/26 06:22:01;;;;;;;30.08;13.38;;;;;;;2.55;61.04;100885.73;1642456;86;21029;-65
2021/10/26 06:24:27;;;;;;;33.53;13.58;;;;;;;2.62;60.90;100889.19;1642931;86;21146;-64
2021/10/26 06:26:54;;;;;;;25.62;13.03;;;;;;;2.72;60.68;100889.98;1639114;86;21115;-65
2021/10/26 06:29:22;;;;;;;21.85;12.55;;;;;;;2.83;60.53;100895.68;1645498;86;21516;-65
2021/10/26 06:31:54;;;;;;;27.05;13.85;;;;;;;2.92;60.28;100891.53;1638946;86;21020;-67
2021/10/26 06:34:21;;;;;;;27.45;13.25;;;;;;;2.99;60.16;100887.34;1643200;86;21059;-64
2021/10/26 06:36:48;;;;;;;31.70;14.50;;;;;;;3.09;60.01;100890.31;1646289;86;21048;-64
2021/10/26 06:39:18;;;;;;;30.48;14.10;;;;;;;3.15;59.77;100885.82;1645006;86;21103;-63
2021/10/26 06:41:43;;;;;;;26.20;13.10;;;;;;;3.21;59.86;100884.05;1649030;86;21035;-65
2021/10/26 06:44:28;;;;;;;28.83;12.90;;;;;;;3.31;59.69;100886.98;1645471;86;21072;-62
2021/10/26 06:47:14;;;;;;;23.92;12.82;;;;;;;3.42;59.55;100883.97;1644868;86;21059;-65
2021/10/26 06:49:59;;;;;;;30.90;12.37;;;;;;;3.53;59.42;100879.03;1653227;86;21175;-62
2021/10/26 06:52:44;;;;;;;23.55;12.68;;;;;;;3.66;59.11;100885.30;1636764;86;21527;-62
2021/10/26 06:55:29;;;;;;;26.90;11.70;;;;;;;3.74;58.98;100880.00;1627612;86;21058;-63
2021/10/26 06:58:14;;;;;;;21.95;10.93;;;;;;;3.80;58.87;100880.42;1632654;86;21044;-62
2021/10/26 07:01:07;;;;;;;32.90;13.15;;;;;;;3.85;58.81;100872.87;1631957;86;21074;-64
2021/10/26 07:03:45;;;;;;;28.02;12.95;;;;;;;3.94;58.87;100873.33;1619263;86;21181;-64
2021/10/26 07:06:31;;;;;;;34.63;12.85;;;;;;;4.03;58.58;100865.03;1644008;86;21000;-65
2021/10/26 07:08:59;;;;;;;21.90;11.38;;;;;;;4.14;58.69;100864.70;1633416;86;21082;-64
2021/10/26 07:11:36;;;;;;;25.72;12.05;;;;;;;4.22;58.71;100865.67;1644197;86;21019;-71
2021/10/26 07:14:04;;;;;;;20.55;11.55;;;;;;;4.33;58.52;100868.04;1653639;86;21028;-65
2021/10/26 07:16:31;;;;;;;29.48;11.15;;;;;;;4.44;58.38;100866.86;1635779;85;21574;-65
2021/10/26 07:19:00;;;;;;;25.55;11.10;;;;;;;4.56;58.10;100870.89;1638404;85;21060;-64
2021/10/26 07:21:29;;;;;;;32.67;12.00;;;;;;;4.66;58.00;100859.34;1638915;85;21011;-65
2021/10/26 07:24:12;;;;;;;25.92;12.45;;;;;;;4.77;57.85;100848.87;1636916;85;21531;-64
2021/10/26 07:26:44;;;;;;;27.25;11.30;;;;;;;4.88;57.57;100848.47;1660133;85;21520;-66
2021/10/26 07:29:11;;;;;;;25.72;11.35;;;;;;;4.98;57.38;100843.73;1661005;85;21975;-65
2021/10/26 07:31:37;;;;;;;24.67;11.18;;;;;;;5.08;57.23;100846.59;1663466;85;21079;-62
2021/10/26 07:34:04;;;;;;;27.80;13.55;;;;;;;5.19;57.10;100845.38;1662415;85;21065;-67
2021/10/26 07:36:51;;;;;;;25.05;13.78;;;;;;;5.29;56.71;100847.45;1659365;85;21586;-64
2021/10/26 07:39:08;;;;;;;17.15;9.88;;;;;;;5.38;56.52;100836.36;1658841;85;21067;-65
2021/10/26 07:41:33;;;;;;;19.15;9.45;;;;;;;5.48;56.23;100838.39;1659198;85;21259;-64
2021/10/26 07:44:18;;;;;;;18.90;10.95;;;;;;;5.56;55.87;100837.95;1641747;85;21035;-64
2021/10/26 07:46:53;;;;;;;20.55;8.80;;;;;;;5.64;55.90;100832.59;1656541;85;21015;-65
2021/10/26 07:49:21;;;;;;;22.45;8.85;;;;;;;5.76;55.79;100838.47;1629256;85;21043;-66
2021/10/26 07:51:48;;;;;;;25.02;9.85;;;;;;;5.89;55.54;100831.23;1636593;85;21069;-64
2021/10/26 08:40:24;;;;;;;22.42;9.58;;;;;;;7.78;50.02;100806.83;1762207;80;22017;-66
2021/10/26 08:42:53;;;;;;;22.42;8.75;;;;;;;7.89;49.53;100808.53;1737399;80;20924;-64
2021/10/26 08:45:22;;;;;;;21.05;9.40;;;;;;;7.98;49.03;100806.09;1728604;80;21089;-63
2021/10/26 08:47:51;;;;;;;16.80;9.30;;;;;;;8.04;48.98;100804.16;1734929;80;21441;-66
2021/10/26 08:50:36;;;;;;;19.52;9.20;;;;;;;8.08;48.60;100814.88;1781930;80;20968;-68
2021/10/26 08:53:06;;;;;;;18.55;10.00;;;;;;;8.05;48.62;100808.57;1781998;80;20936;-68
2021/10/26 08:56:13;;;;;;;;;;;;;;;;;;;;;
2021/10/26 08:58:44;;;;;;;22.60;12.35;;;;;;;8.09;49.06;100801.42;1753395;80;21052;-67
2021/10/26 09:01:13;;;;;;;27.73;11.53;;;;;;;8.21;49.32;100802.54;1737477;79;20971;-67
2021/10/26 09:03:42;;;;;;;25.20;12.63;;;;;;;8.32;49.07;100803.39;1761454;79;20971;-69
2021/10/26 09:06:09;;;;;;;23.22;12.47;;;;;;;8.44;48.89;100805.86;1768622;79;21081;-68
2021/10/26 09:08:36;;;;;;;20.10;11.68;;;;;;;8.54;48.79;100805.04;1781653;80;21546;-69
2021/10/26 09:11:38;;;;;;;22.50;11.70;;;;;;;8.61;48.49;100803.42;1768808;80;21777;-63
2021/10/26 09:16:57;;;;;;;19.40;9.33;;;;;;;8.73;48.07;100784.73;1789586;80;20861;-64
2021/10/26 09:19:44;;;;;;;19.67;11.60;;;;;;;8.79;47.91;100787.45;1712242;81;20968;-69
2021/10/26 09:22:15;;;;;;;16.50;9.05;;;;;;;8.86;47.70;100795.70;1804050;78;21445;-66
2021/10/26 09:25:00;;;;;;;19.40;9.73;;;;;;;8.97;47.23;100788.81;1825602;78;21515;-66
2021/10/26 09:27:27;;;;;;;15.88;9.18;;;;;;;9.01;46.67;100787.97;1765215;78;21106;-68
2021/10/26 09:30:02;;;;;;;28.23;13.85;;;;;;;9.06;46.12;100787.70;1771522;80;21516;-65
2021/10/26 09:32:40;;;;;;;17.75;10.15;;;;;;;9.09;45.58;100781.06;1796496;80;21014;-66
2021/10/26 09:35:12;;;;;;;18.25;8.08;;;;;;;9.05;45.35;100786.86;1818844;78;20937;-67
2021/10/26 09:37:45;;;;;;;17.75;9.58;;;;;;;9.07;45.60;100778.33;1817723;78;21161;-66
2021/10/26 09:40:13;;;;;;;19.70;9.20;;;;;;;9.11;45.83;100779.44;1821951;78;20953;-67
2021/10/26 09:42:46;;;;;;;17.00;8.28;;;;;;;9.19;45.91;100771.98;1829026;78;20965;-66
2021/10/26 09:45:28;;;;;;;14.38;8.28;;;;;;;9.29;45.67;100766.99;1820888;78;20959;-65
2021/10/26 09:47:58;;;;;;;15.45;9.25;;;;;;;9.36;45.45;100762.56;1791283;78;21017;-66
2021/10/26 09:50:33;;;;;;;26.30;9.58;;;;;;;9.45;45.16;100759.48;1794085;79;21078;-69
2021/10/26 09:53:08;;;;;;;16.62;9.40;;;;;;;9.53;44.79;100761.38;1787703;78;21020;-68
2021/10/26 09:55:46;;;;;;;19.17;9.10;;;;;;;9.59;44.65;100761.62;1830451;78;21401;-64
2021/10/26 09:58:15;;;;;;;15.65;8.00;;;;;;;9.64;44.59;100750.58;1818258;78;20881;-62
2021/10/26 10:00:45;;;;;;;17.57;9.10;;;;;;;9.71;44.31;100755.23;1816995;78;20897;-65
2021/10/26 10:03:24;;;;;;;16.67;8.75;;;;;;;9.77;43.94;100757.95;1821022;78;21123;-69
2021/10/26 10:05:57;;;;;;;18.65;8.53;;;;;;;9.78;43.80;100736.19;1792757;78;21001;-67
2021/10/26 10:08:39;;;;;;;11.70;7.60;;;;;;;9.82;44.03;100735.36;1816729;78;21446;-68
2021/10/26 10:11:11;;;;;;;17.60;8.03;;;;;;;9.93;43.72;100732.55;1831092;78;21270;-67
2021/10/26 10:13:39;;;;;;;18.20;7.83;;;;;;;9.97;43.18;100724.80;1830226;78;21397;-69
2021/10/26 10:16:13;;;;;;;15.93;8.30;;;;;;;9.97;43.46;100723.41;1828079;78;21285;-65
2021/10/26 10:18:41;;;;;;;18.95;9.30;;;;;;;9.97;42.82;100719.28;1802514;78;20956;-68
2021/10/26 10:21:13;;;;;;;15.63;8.45;;;;;;;9.97;43.22;100720.66;1830945;78;21370;-66
2021/10/26 10:23:42;;;;;;;14.53;8.58;;;;;;;10.00;43.12;100712.95;1807908;78;21043;-65
2021/10/26 10:26:13;;;;;;;19.27;8.23;;;;;;;10.09;43.25;100710.66;1786595;79;20984;-64
2021/10/26 10:28:44;;;;;;;16.97;8.60;;;;;;;10.28;43.13;100710.50;1807946;79;21742;-69
2021/10/26 10:31:14;;;;;;;13.58;6.25;;;;;;;10.51;42.94;100698.48;1795850;78;20954;-68
2021/10/26 10:33:45;;;;;;;21.55;7.05;;;;;;;10.70;42.37;100698.00;1809691;79;20878;-69
2021/10/26 10:36:12;;;;;;;12.07;6.03;;;;;;;10.86;41.19;100703.34;1810060;79;20945;-67
2021/10/26 10:38:38;;;;;;;14.35;6.70;;;;;;;10.81;40.85;100691.83;1779686;79;20974;-70
2021/10/26 10:41:28;;;;;;;9.78;6.30;;;;;;;10.79;40.59;100687.70;1783824;80;21926;-71
2021/10/26 10:43:58;;;;;;;12.30;6.12;;;;;;;10.73;40.54;100680.62;1760162;80;20905;-66
2021/10/26 10:46:42;;;;;;;9.88;6.28;;;;;;;10.67;40.22;100677.09;1780402;80;20974;-65
2021/10/26 10:49:26;;;;;;;;;;;;;;;10.67;39.94;100675.16;1787622;79;21020;-66
2021/10/26 10:52:08;;;;;;;11.00;6.47;;;;;;;10.64;40.08;100672.99;1762058;80;20120;-68
2021/10/26 10:54:49;;;;;;;13.45;6.37;;;;;;;10.67;40.41;100663.30;1793305;79;20933;-69
2021/10/26 10:57:41;;;;;;;10.60;6.58;;;;;;;10.71;40.28;100665.17;1792964;79;20909;-70
2021/10/26 11:00:28;;;;;;;13.15;6.85;;;;;;;10.75;40.24;100657.72;1758444;80;20917;-65
2021/10/26 11:02:57;;;;;;;8.83;5.45;;;;;;;10.80;39.64;100660.39;1762484;80;20949;-68
2021/10/26 11:05:40;;;;;;;13.83;6.85;;;;;;;10.75;38.88;100660.48;1741014;81;21533;-64
2021/10/26 11:08:14;;;;;;;17.95;6.22;;;;;;;10.70;39.10;100653.89;1775630;80;22000;-68
2021/10/26 11:10:57;;;;;;;13.22;6.25;;;;;;;10.68;39.41;100645.67;1762988;80;20956;-69
2021/10/26 11:13:35;;;;;;;8.65;5.65;;;;;;;10.65;39.26;100640.72;1763228;80;20965;-69
2021/10/26 11:16:09;;;;;;;7.83;5.30;;;;;;;10.64;39.39;100642.67;1784920;80;20921;-67
2021/10/26 11:18:47;;;;;;;13.95;6.58;;;;;;;10.67;39.55;100639.33;1758854;80;21576;-71
2021/10/26 11:21:29;;;;;;;16.05;6.80;;;;;;;10.74;39.00;100643.11;1755422;80;21504;-68
2021/10/26 11:24:07;;;;;;;9.33;6.05;;;;;;;10.75;39.19;100632.91;1767376;80;21448;-65
2021/10/26 11:26:41;;;;;;;11.95;5.85;;;;;;;10.82;39.70;100627.30;1789558;80;20885;-68
2021/10/26 11:29:28;;;;;;;10.00;5.83;;;;;;;10.93;39.89;100615.59;1780984;79;21544;-65
2021/10/26 11:31:57;;;;;;;10.58;6.45;;;;;;;11.08;39.11;100624.76;1757804;80;21008;-68
2021/10/26 11:34:34;;;;;;;17.57;8.28;;;;;;;11.16;38.81;100614.44;1737740;81;22181;-69
2021/10/26 11:37:06;;;;;;;10.25;5.53;;;;;;;11.21;38.73;100614.92;1784019;80;20986;-64
2021/10/26 11:39:35;;;;;;;13.00;5.35;;;;;;;11.26;39.23;100612.67;1785688;79;21046;-66
2021/10/26 11:42:04;;;;;;;11.65;6.10;;;;;;;11.34;39.25;100603.72;1777691;80;21058;-67
2021/10/26 11:44:31;;;;;;;12.82;6.10;;;;;;;11.43;38.97;100607.98;1758089;81;21043;-69
2021/10/26 11:47:02;;;;;;;13.03;6.33;;;;;;;11.53;38.62;100609.20;1743415;81;21030;-64
2021/10/26 11:49:31;;;;;;;14.30;5.75;;;;;;;11.63;38.23;100604.10;1770070;81;20959;-67
2021/10/26 11:52:01;;;;;;;10.35;5.83;;;;;;;11.72;37.91;100603.41;1738191;81;21538;-66
2021/10/26 11:54:49;;;;;;;11.15;5.75;;;;;;;11.77;38.00;100595.84;1779694;80;21000;-68
2021/10/26 11:57:20;;;;;;;9.33;5.45;;;;;;;11.83;37.55;100595.77;1795113;79;20945;-68
2021/10/26 11:59:47;;;;;;;9.98;6.53;;;;;;;11.85;37.38;100595.73;1793960;79;22187;-69
2021/10/26 12:02:33;;;;;;;7.53;5.15;;;;;;;11.89;37.25;100589.84;1795734;80;20952;-70
2021/10/26 12:05:01;;;;;;;12.82;5.25;;;;;;;11.96;37.10;100590.03;1779893;80;21039;-66
2021/10/26 12:07:30;;;;;;;13.05;4.95;;;;;;;12.00;37.19;100577.23;1795105;79;20963;-66
2021/10/26 12:09:59;;;;;;;11.95;5.95;;;;;;;12.05;37.30;100573.00;1790315;79;21090;-71
2021/10/26 12:12:30;;;;;;;12.70;6.28;;;;;;;12.09;36.26;100576.02;1757840;81;21134;-66
2021/10/26 12:15:02;;;;;;;13.65;7.00;;;;;;;12.11;35.81;100584.23;1757505;81;20934;-70
2021/10/26 12:17:34;;;;;;;13.68;7.17;;;;;;;12.10;35.46;100574.33;1772180;80;21032;-70
2021/10/26 12:20:23;;;;;;;20.05;6.25;;;;;;;12.03;35.12;100566.96;1795451;80;20912;-69
2021/10/26 12:22:56;;;;;;;16.20;5.12;;;;;;;11.99;35.71;100568.70;1761314;80;20967;-66
2021/10/26 12:25:32;;;;;;;11.75;6.65;;;;;;;12.00;36.13;100572.55;1794706;79;21094;-69